Chillicothe, Iowa
Current Conditions -  °F | °C
As of 6:53 PM on Wednesday 17 Dec 2014 (Local Time) from KOTM Reporting Station
Clear Clear  
Wind Chill: 13°   Ceiling: Unl
Heat Index: 22°   Visibility: 10mi
Dew Point: 16°   Wind: 7mph
Humidity: 78%   Direction: 20°NNE
Pressure: 30.28"   Gusts: NA
Location:  41.09°N, 92.53°W
Report Text: KOTM 180053Z AUTO 02006KT 10SM CLR M06/M09 A3028 RMK AO2 SLP269 T10561089
Loading
Personal Weather Stations






























Interactive Weather Map New forecast layout! Learn more

10-Day Weather Forecast

Advertisements
Track Severe Weather on mobile